sensor_id;sensor_type;location;lat;lon;timestamp;P1;durP1;ratioP1;P2;durP2;ratioP2
51758;SDS011;66684;47.568;18.734;2023-06-14T00:00:58;4.75;;;2.00;;
51758;SDS011;66684;47.568;18.734;2023-06-14T00:03:24;6.95;;;2.30;;
51758;SDS011;66684;47.568;18.734;2023-06-14T00:05:51;3.87;;;2.15;;
51758;SDS011;66684;47.568;18.734;2023-06-14T00:08:17;4.12;;;2.00;;
51758;SDS011;66684;47.568;18.734;2023-06-14T00:10:44;3.62;;;2.08;;
51758;SDS011;66684;47.568;18.734;2023-06-14T00:13:10;4.50;;;2.60;;
51758;SDS011;66684;47.568;18.734;2023-06-14T00:15:36;3.75;;;1.90;;
51758;SDS011;66684;47.568;18.734;2023-06-14T00:18:03;4.05;;;2.08;;
51758;SDS011;66684;47.568;18.734;2023-06-14T00:20:30;3.95;;;2.22;;
51758;SDS011;66684;47.568;18.734;2023-06-14T00:22:58;6.03;;;2.22;;
51758;SDS011;66684;47.568;18.734;2023-06-14T00:25:25;5.00;;;2.03;;
51758;SDS011;66684;47.568;18.734;2023-06-14T00:27:51;3.78;;;2.15;;
51758;SDS011;66684;47.568;18.734;2023-06-14T00:30:18;4.10;;;1.90;;
51758;SDS011;66684;47.568;18.734;2023-06-14T00:32:44;5.78;;;2.05;;
51758;SDS011;66684;47.568;18.734;2023-06-14T00:35:10;3.33;;;2.00;;
51758;SDS011;66684;47.568;18.734;2023-06-14T00:37:37;4.55;;;2.50;;
51758;SDS011;66684;47.568;18.734;2023-06-14T00:40:04;7.35;;;2.20;;
51758;SDS011;66684;47.568;18.734;2023-06-14T00:42:31;8.32;;;2.40;;
51758;SDS011;66684;47.568;18.734;2023-06-14T00:44:57;4.18;;;2.42;;
51758;SDS011;66684;47.568;18.734;2023-06-14T00:47:23;4.18;;;1.90;;
51758;SDS011;66684;47.568;18.734;2023-06-14T00:49:49;4.97;;;2.40;;
51758;SDS011;66684;47.568;18.734;2023-06-14T00:52:16;2.95;;;1.83;;
51758;SDS011;66684;47.568;18.734;2023-06-14T00:54:43;7.45;;;2.12;;
51758;SDS011;66684;47.568;18.734;2023-06-14T00:57:10;4.90;;;2.33;;
51758;SDS011;66684;47.568;18.734;2023-06-14T00:59:38;3.42;;;2.20;;
51758;SDS011;66684;47.568;18.734;2023-06-14T01:02:08;4.65;;;2.58;;
51758;SDS011;66684;47.568;18.734;2023-06-14T01:04:34;4.18;;;2.37;;
51758;SDS011;66684;47.568;18.734;2023-06-14T01:15:25;5.82;;;2.58;;
51758;SDS011;66684;47.568;18.734;2023-06-14T01:17:53;5.00;;;2.22;;
51758;SDS011;66684;47.568;18.734;2023-06-14T01:20:23;6.15;;;2.78;;
51758;SDS011;66684;47.568;18.734;2023-06-14T01:22:55;4.78;;;2.55;;
51758;SDS011;66684;47.568;18.734;2023-06-14T01:25:21;3.47;;;2.25;;
51758;SDS011;66684;47.568;18.734;2023-06-14T01:27:48;3.80;;;2.30;;
51758;SDS011;66684;47.568;18.734;2023-06-14T01:30:16;4.82;;;2.47;;
51758;SDS011;66684;47.568;18.734;2023-06-14T01:32:43;4.90;;;2.58;;
51758;SDS011;66684;47.568;18.734;2023-06-14T01:35:10;4.18;;;2.55;;
51758;SDS011;66684;47.568;18.734;2023-06-14T01:37:36;4.30;;;2.72;;
51758;SDS011;66684;47.568;18.734;2023-06-14T01:40:03;6.10;;;2.62;;
51758;SDS011;66684;47.568;18.734;2023-06-14T01:42:32;5.12;;;2.72;;
51758;SDS011;66684;47.568;18.734;2023-06-14T01:45:02;5.93;;;2.70;;
51758;SDS011;66684;47.568;18.734;2023-06-14T01:47:30;5.50;;;2.58;;
51758;SDS011;66684;47.568;18.734;2023-06-14T01:49:56;3.83;;;2.67;;
51758;SDS011;66684;47.568;18.734;2023-06-14T01:52:22;5.97;;;3.50;;
51758;SDS011;66684;47.568;18.734;2023-06-14T01:54:50;4.93;;;2.78;;
51758;SDS011;66684;47.568;18.734;2023-06-14T01:57:16;7.70;;;2.87;;
51758;SDS011;66684;47.568;18.734;2023-06-14T01:59:42;5.25;;;2.50;;
51758;SDS011;66684;47.568;18.734;2023-06-14T02:02:08;4.05;;;2.37;;
51758;SDS011;66684;47.568;18.734;2023-06-14T02:04:34;5.20;;;2.80;;
51758;SDS011;66684;47.568;18.734;2023-06-14T02:07:00;5.55;;;2.83;;
51758;SDS011;66684;47.568;18.734;2023-06-14T02:09:25;8.32;;;2.80;;
51758;SDS011;66684;47.568;18.734;2023-06-14T02:11:52;8.13;;;2.90;;
51758;SDS011;66684;47.568;18.734;2023-06-14T02:14:18;5.50;;;2.40;;
51758;SDS011;66684;47.568;18.734;2023-06-14T02:16:44;4.70;;;3.15;;
51758;SDS011;66684;47.568;18.734;2023-06-14T02:19:15;6.00;;;2.80;;
51758;SDS011;66684;47.568;18.734;2023-06-14T02:21:44;5.15;;;2.78;;
51758;SDS011;66684;47.568;18.734;2023-06-14T02:24:10;4.72;;;2.55;;
51758;SDS011;66684;47.568;18.734;2023-06-14T02:26:37;5.28;;;3.10;;
51758;SDS011;66684;47.568;18.734;2023-06-14T02:29:08;5.03;;;3.00;;
51758;SDS011;66684;47.568;18.734;2023-06-14T02:31:36;4.97;;;2.70;;
51758;SDS011;66684;47.568;18.734;2023-06-14T02:34:02;7.00;;;2.80;;
51758;SDS011;66684;47.568;18.734;2023-06-14T02:36:28;9.18;;;2.95;;
51758;SDS011;66684;47.568;18.734;2023-06-14T02:38:56;8.30;;;3.00;;
51758;SDS011;66684;47.568;18.734;2023-06-14T02:41:25;4.25;;;2.75;;
51758;SDS011;66684;47.568;18.734;2023-06-14T02:43:52;10.00;;;3.17;;
51758;SDS011;66684;47.568;18.734;2023-06-14T02:46:19;4.62;;;2.90;;
51758;SDS011;66684;47.568;18.734;2023-06-14T02:48:45;4.00;;;2.42;;
51758;SDS011;66684;47.568;18.734;2023-06-14T02:51:11;6.32;;;3.40;;
51758;SDS011;66684;47.568;18.734;2023-06-14T02:53:38;8.00;;;3.15;;
51758;SDS011;66684;47.568;18.734;2023-06-14T02:56:04;5.90;;;2.67;;
51758;SDS011;66684;47.568;18.734;2023-06-14T02:58:30;7.97;;;3.53;;
51758;SDS011;66684;47.568;18.734;2023-06-14T03:00:56;5.72;;;3.12;;
51758;SDS011;66684;47.568;18.734;2023-06-14T03:03:22;6.60;;;3.15;;
51758;SDS011;66684;47.568;18.734;2023-06-14T03:05:50;8.38;;;3.35;;
51758;SDS011;66684;47.568;18.734;2023-06-14T03:08:16;5.10;;;3.20;;
51758;SDS011;66684;47.568;18.734;2023-06-14T03:10:47;6.32;;;4.00;;
51758;SDS011;66684;47.568;18.734;2023-06-14T03:13:14;6.40;;;3.33;;
51758;SDS011;66684;47.568;18.734;2023-06-14T03:15:46;6.40;;;3.80;;
51758;SDS011;66684;47.568;18.734;2023-06-14T03:18:13;5.05;;;3.55;;
51758;SDS011;66684;47.568;18.734;2023-06-14T03:20:40;7.28;;;3.78;;
51758;SDS011;66684;47.568;18.734;2023-06-14T03:23:06;10.40;;;4.45;;
51758;SDS011;66684;47.568;18.734;2023-06-14T03:25:32;7.30;;;4.47;;
51758;SDS011;66684;47.568;18.734;2023-06-14T03:28:04;8.73;;;4.30;;
51758;SDS011;66684;47.568;18.734;2023-06-14T03:30:31;8.38;;;4.55;;
51758;SDS011;66684;47.568;18.734;2023-06-14T03:32:57;8.77;;;5.03;;
51758;SDS011;66684;47.568;18.734;2023-06-14T03:35:23;8.93;;;4.65;;
51758;SDS011;66684;47.568;18.734;2023-06-14T03:37:49;10.57;;;5.32;;
51758;SDS011;66684;47.568;18.734;2023-06-14T03:40:16;8.82;;;5.28;;
51758;SDS011;66684;47.568;18.734;2023-06-14T03:42:43;9.18;;;5.62;;
51758;SDS011;66684;47.568;18.734;2023-06-14T03:45:09;20.70;;;7.15;;
51758;SDS011;66684;47.568;18.734;2023-06-14T03:47:35;10.50;;;6.22;;
51758;SDS011;66684;47.568;18.734;2023-06-14T03:50:04;11.93;;;6.47;;
51758;SDS011;66684;47.568;18.734;2023-06-14T03:52:31;8.85;;;6.75;;
51758;SDS011;66684;47.568;18.734;2023-06-14T03:54:58;10.73;;;6.80;;
51758;SDS011;66684;47.568;18.734;2023-06-14T03:57:25;12.40;;;6.57;;
51758;SDS011;66684;47.568;18.734;2023-06-14T03:59:51;11.05;;;5.95;;
51758;SDS011;66684;47.568;18.734;2023-06-14T04:02:17;12.45;;;5.62;;
51758;SDS011;66684;47.568;18.734;2023-06-14T04:04:45;8.57;;;5.87;;
51758;SDS011;66684;47.568;18.734;2023-06-14T04:07:11;11.95;;;6.00;;
51758;SDS011;66684;47.568;18.734;2023-06-14T04:09:38;9.15;;;5.80;;
51758;SDS011;66684;47.568;18.734;2023-06-14T04:12:05;11.75;;;5.70;;
51758;SDS011;66684;47.568;18.734;2023-06-14T04:14:31;10.68;;;7.05;;
51758;SDS011;66684;47.568;18.734;2023-06-14T04:17:00;10.43;;;7.07;;
51758;SDS011;66684;47.568;18.734;2023-06-14T04:19:26;10.77;;;7.45;;
51758;SDS011;66684;47.568;18.734;2023-06-14T04:21:52;10.68;;;7.53;;
51758;SDS011;66684;47.568;18.734;2023-06-14T04:24:18;11.75;;;6.90;;
51758;SDS011;66684;47.568;18.734;2023-06-14T04:26:44;10.52;;;7.47;;
51758;SDS011;66684;47.568;18.734;2023-06-14T04:29:16;10.90;;;7.60;;
51758;SDS011;66684;47.568;18.734;2023-06-14T04:31:42;13.13;;;8.02;;
51758;SDS011;66684;47.568;18.734;2023-06-14T04:34:10;10.48;;;8.30;;
51758;SDS011;66684;47.568;18.734;2023-06-14T04:36:41;10.95;;;7.85;;
51758;SDS011;66684;47.568;18.734;2023-06-14T04:39:15;12.85;;;8.02;;
51758;SDS011;66684;47.568;18.734;2023-06-14T04:41:43;12.85;;;8.45;;
51758;SDS011;66684;47.568;18.734;2023-06-14T04:44:09;13.23;;;8.27;;
51758;SDS011;66684;47.568;18.734;2023-06-14T04:46:36;11.32;;;8.73;;
51758;SDS011;66684;47.568;18.734;2023-06-14T04:49:12;15.43;;;9.40;;
51758;SDS011;66684;47.568;18.734;2023-06-14T04:51:41;12.88;;;8.45;;
51758;SDS011;66684;47.568;18.734;2023-06-14T04:54:08;13.65;;;8.85;;
51758;SDS011;66684;47.568;18.734;2023-06-14T04:56:40;12.90;;;9.15;;
51758;SDS011;66684;47.568;18.734;2023-06-14T04:59:07;12.50;;;9.13;;
51758;SDS011;66684;47.568;18.734;2023-06-14T05:01:34;10.77;;;8.35;;
51758;SDS011;66684;47.568;18.734;2023-06-14T05:04:01;10.60;;;8.25;;
51758;SDS011;66684;47.568;18.734;2023-06-14T05:06:27;13.30;;;9.00;;
51758;SDS011;66684;47.568;18.734;2023-06-14T05:08:56;13.07;;;9.02;;
51758;SDS011;66684;47.568;18.734;2023-06-14T05:11:21;12.88;;;9.20;;
51758;SDS011;66684;47.568;18.734;2023-06-14T05:13:49;10.77;;;8.13;;
51758;SDS011;66684;47.568;18.734;2023-06-14T05:16:17;11.80;;;8.32;;
51758;SDS011;66684;47.568;18.734;2023-06-14T05:18:45;12.98;;;8.88;;
51758;SDS011;66684;47.568;18.734;2023-06-14T05:21:12;12.77;;;8.75;;
51758;SDS011;66684;47.568;18.734;2023-06-14T05:23:41;11.63;;;8.60;;
51758;SDS011;66684;47.568;18.734;2023-06-14T05:26:07;14.18;;;8.93;;
51758;SDS011;66684;47.568;18.734;2023-06-14T05:28:33;11.60;;;8.68;;
51758;SDS011;66684;47.568;18.734;2023-06-14T05:30:59;10.77;;;8.05;;
51758;SDS011;66684;47.568;18.734;2023-06-14T05:33:25;13.55;;;8.38;;
51758;SDS011;66684;47.568;18.734;2023-06-14T05:35:51;13.50;;;8.50;;
51758;SDS011;66684;47.568;18.734;2023-06-14T05:38:17;13.32;;;9.38;;
51758;SDS011;66684;47.568;18.734;2023-06-14T05:40:43;11.88;;;8.73;;
51758;SDS011;66684;47.568;18.734;2023-06-14T05:43:09;13.43;;;10.32;;
51758;SDS011;66684;47.568;18.734;2023-06-14T05:45:36;14.52;;;10.15;;
51758;SDS011;66684;47.568;18.734;2023-06-14T05:48:01;14.70;;;9.23;;
51758;SDS011;66684;47.568;18.734;2023-06-14T05:50:27;16.40;;;8.52;;
51758;SDS011;66684;47.568;18.734;2023-06-14T05:52:53;9.82;;;8.05;;
51758;SDS011;66684;47.568;18.734;2023-06-14T05:55:19;13.85;;;8.45;;
51758;SDS011;66684;47.568;18.734;2023-06-14T05:57:45;12.18;;;8.55;;
51758;SDS011;66684;47.568;18.734;2023-06-14T06:00:11;12.93;;;8.35;;
51758;SDS011;66684;47.568;18.734;2023-06-14T06:02:40;13.60;;;8.80;;
51758;SDS011;66684;47.568;18.734;2023-06-14T06:05:08;12.93;;;8.75;;
51758;SDS011;66684;47.568;18.734;2023-06-14T06:07:34;12.13;;;9.10;;
51758;SDS011;66684;47.568;18.734;2023-06-14T06:10:00;13.27;;;8.90;;
51758;SDS011;66684;47.568;18.734;2023-06-14T06:12:26;14.00;;;8.98;;
51758;SDS011;66684;47.568;18.734;2023-06-14T06:14:52;13.10;;;9.23;;
51758;SDS011;66684;47.568;18.734;2023-06-14T06:17:18;14.77;;;8.70;;
51758;SDS011;66684;47.568;18.734;2023-06-14T06:19:44;13.85;;;9.15;;
51758;SDS011;66684;47.568;18.734;2023-06-14T06:22:10;11.40;;;7.87;;
51758;SDS011;66684;47.568;18.734;2023-06-14T06:24:36;11.95;;;7.57;;
51758;SDS011;66684;47.568;18.734;2023-06-14T06:27:01;11.27;;;7.28;;
51758;SDS011;66684;47.568;18.734;2023-06-14T06:29:27;10.77;;;7.22;;
51758;SDS011;66684;47.568;18.734;2023-06-14T06:31:53;14.25;;;8.07;;
51758;SDS011;66684;47.568;18.734;2023-06-14T06:34:21;10.70;;;7.62;;
51758;SDS011;66684;47.568;18.734;2023-06-14T06:36:47;10.07;;;7.65;;
51758;SDS011;66684;47.568;18.734;2023-06-14T06:39:13;13.27;;;7.55;;
51758;SDS011;66684;47.568;18.734;2023-06-14T06:41:40;12.35;;;7.82;;
51758;SDS011;66684;47.568;18.734;2023-06-14T06:44:06;10.32;;;7.20;;
51758;SDS011;66684;47.568;18.734;2023-06-14T06:46:33;13.10;;;7.25;;
51758;SDS011;66684;47.568;18.734;2023-06-14T06:49:00;9.45;;;7.25;;
51758;SDS011;66684;47.568;18.734;2023-06-14T06:51:26;8.65;;;6.72;;
51758;SDS011;66684;47.568;18.734;2023-06-14T06:53:52;9.35;;;6.87;;
51758;SDS011;66684;47.568;18.734;2023-06-14T06:56:19;10.60;;;7.37;;
51758;SDS011;66684;47.568;18.734;2023-06-14T06:58:49;9.98;;;7.37;;
51758;SDS011;66684;47.568;18.734;2023-06-14T07:01:15;10.73;;;7.20;;
51758;SDS011;66684;47.568;18.734;2023-06-14T07:03:42;10.68;;;7.40;;
51758;SDS011;66684;47.568;18.734;2023-06-14T07:06:08;9.77;;;7.35;;
51758;SDS011;66684;47.568;18.734;2023-06-14T07:08:34;11.80;;;6.53;;
51758;SDS011;66684;47.568;18.734;2023-06-14T07:11:01;9.88;;;7.30;;
51758;SDS011;66684;47.568;18.734;2023-06-14T07:13:27;11.63;;;7.18;;
51758;SDS011;66684;47.568;18.734;2023-06-14T07:15:54;9.77;;;6.15;;
51758;SDS011;66684;47.568;18.734;2023-06-14T07:18:20;10.63;;;6.78;;
51758;SDS011;66684;47.568;18.734;2023-06-14T07:20:47;9.93;;;6.75;;
51758;SDS011;66684;47.568;18.734;2023-06-14T07:23:13;8.55;;;5.75;;
51758;SDS011;66684;47.568;18.734;2023-06-14T07:25:39;14.10;;;5.28;;
51758;SDS011;66684;47.568;18.734;2023-06-14T07:28:05;7.55;;;5.55;;
51758;SDS011;66684;47.568;18.734;2023-06-14T07:30:31;7.97;;;5.62;;
51758;SDS011;66684;47.568;18.734;2023-06-14T07:32:57;10.98;;;5.25;;
51758;SDS011;66684;47.568;18.734;2023-06-14T07:35:23;11.05;;;4.95;;
51758;SDS011;66684;47.568;18.734;2023-06-14T07:37:49;11.18;;;5.50;;
51758;SDS011;66684;47.568;18.734;2023-06-14T07:40:15;8.93;;;5.37;;
51758;SDS011;66684;47.568;18.734;2023-06-14T07:42:41;7.47;;;5.15;;
51758;SDS011;66684;47.568;18.734;2023-06-14T07:45:07;10.15;;;5.43;;
51758;SDS011;66684;47.568;18.734;2023-06-14T07:47:33;10.55;;;5.22;;
51758;SDS011;66684;47.568;18.734;2023-06-14T07:50:00;7.60;;;5.25;;
51758;SDS011;66684;47.568;18.734;2023-06-14T07:52:25;10.15;;;5.47;;
51758;SDS011;66684;47.568;18.734;2023-06-14T07:54:51;8.48;;;5.57;;
51758;SDS011;66684;47.568;18.734;2023-06-14T07:57:17;7.30;;;4.80;;
51758;SDS011;66684;47.568;18.734;2023-06-14T07:59:45;9.07;;;4.90;;
51758;SDS011;66684;47.568;18.734;2023-06-14T08:02:11;7.22;;;4.72;;
51758;SDS011;66684;47.568;18.734;2023-06-14T08:04:38;8.25;;;4.78;;
51758;SDS011;66684;47.568;18.734;2023-06-14T08:07:04;9.18;;;4.60;;
51758;SDS011;66684;47.568;18.734;2023-06-14T08:09:30;7.97;;;4.37;;
51758;SDS011;66684;47.568;18.734;2023-06-14T08:11:57;8.80;;;4.25;;
51758;SDS011;66684;47.568;18.734;2023-06-14T08:14:22;5.93;;;3.78;;
51758;SDS011;66684;47.568;18.734;2023-06-14T08:16:49;8.05;;;4.20;;
51758;SDS011;66684;47.568;18.734;2023-06-14T08:19:14;7.45;;;4.32;;
51758;SDS011;66684;47.568;18.734;2023-06-14T08:21:42;7.03;;;4.78;;
51758;SDS011;66684;47.568;18.734;2023-06-14T08:24:10;7.82;;;4.70;;
51758;SDS011;66684;47.568;18.734;2023-06-14T08:26:38;8.93;;;4.95;;
51758;SDS011;66684;47.568;18.734;2023-06-14T08:29:04;8.05;;;5.50;;
51758;SDS011;66684;47.568;18.734;2023-06-14T08:31:32;9.48;;;5.40;;
51758;SDS011;66684;47.568;18.734;2023-06-14T08:33:58;10.43;;;5.85;;
51758;SDS011;66684;47.568;18.734;2023-06-14T08:36:24;9.55;;;5.70;;
51758;SDS011;66684;47.568;18.734;2023-06-14T08:38:50;9.60;;;5.62;;
51758;SDS011;66684;47.568;18.734;2023-06-14T08:41:20;9.55;;;5.72;;
51758;SDS011;66684;47.568;18.734;2023-06-14T08:43:50;8.88;;;5.45;;
51758;SDS011;66684;47.568;18.734;2023-06-14T08:46:17;9.50;;;5.25;;
51758;SDS011;66684;47.568;18.734;2023-06-14T08:48:51;9.75;;;5.82;;
51758;SDS011;66684;47.568;18.734;2023-06-14T08:51:18;10.48;;;5.55;;
51758;SDS011;66684;47.568;18.734;2023-06-14T08:53:44;8.15;;;5.05;;
51758;SDS011;66684;47.568;18.734;2023-06-14T08:56:12;12.13;;;5.35;;
51758;SDS011;66684;47.568;18.734;2023-06-14T08:58:44;9.90;;;5.37;;
51758;SDS011;66684;47.568;18.734;2023-06-14T09:01:13;10.90;;;5.78;;
51758;SDS011;66684;47.568;18.734;2023-06-14T09:03:42;9.98;;;5.32;;
51758;SDS011;66684;47.568;18.734;2023-06-14T09:06:08;11.20;;;5.00;;
51758;SDS011;66684;47.568;18.734;2023-06-14T09:08:45;10.00;;;5.57;;
51758;SDS011;66684;47.568;18.734;2023-06-14T09:11:14;11.35;;;5.80;;
51758;SDS011;66684;47.568;18.734;2023-06-14T09:13:44;9.77;;;4.60;;
51758;SDS011;66684;47.568;18.734;2023-06-14T09:16:11;9.07;;;5.60;;
51758;SDS011;66684;47.568;18.734;2023-06-14T09:18:38;11.25;;;5.30;;
51758;SDS011;66684;47.568;18.734;2023-06-14T09:21:06;9.63;;;5.40;;
51758;SDS011;66684;47.568;18.734;2023-06-14T09:23:36;9.27;;;4.82;;
51758;SDS011;66684;47.568;18.734;2023-06-14T09:26:09;8.45;;;5.05;;
51758;SDS011;66684;47.568;18.734;2023-06-14T09:28:36;7.75;;;4.70;;
51758;SDS011;66684;47.568;18.734;2023-06-14T09:31:07;7.68;;;4.70;;
51758;SDS011;66684;47.568;18.734;2023-06-14T09:33:35;10.45;;;4.60;;
51758;SDS011;66684;47.568;18.734;2023-06-14T09:36:01;10.77;;;4.62;;
51758;SDS011;66684;47.568;18.734;2023-06-14T09:38:27;8.48;;;4.47;;
51758;SDS011;66684;47.568;18.734;2023-06-14T09:40:55;11.85;;;4.57;;
51758;SDS011;66684;47.568;18.734;2023-06-14T09:43:23;8.30;;;4.18;;
51758;SDS011;66684;47.568;18.734;2023-06-14T09:45:49;6.97;;;3.85;;
51758;SDS011;66684;47.568;18.734;2023-06-14T09:48:16;9.13;;;4.40;;
51758;SDS011;66684;47.568;18.734;2023-06-14T09:50:46;9.88;;;4.30;;
51758;SDS011;66684;47.568;18.734;2023-06-14T09:53:13;13.30;;;4.12;;
51758;SDS011;66684;47.568;18.734;2023-06-14T09:55:40;5.50;;;3.78;;
51758;SDS011;66684;47.568;18.734;2023-06-14T09:58:07;8.10;;;4.32;;
51758;SDS011;66684;47.568;18.734;2023-06-14T10:00:35;8.95;;;4.00;;
51758;SDS011;66684;47.568;18.734;2023-06-14T10:03:06;7.60;;;4.12;;
51758;SDS011;66684;47.568;18.734;2023-06-14T10:05:38;6.50;;;3.45;;
51758;SDS011;66684;47.568;18.734;2023-06-14T10:08:10;7.20;;;3.67;;
51758;SDS011;66684;47.568;18.734;2023-06-14T10:10:42;7.53;;;4.03;;
51758;SDS011;66684;47.568;18.734;2023-06-14T10:13:08;4.80;;;3.50;;
51758;SDS011;66684;47.568;18.734;2023-06-14T10:18:36;8.10;;;4.82;;
51758;SDS011;66684;47.568;18.734;2023-06-14T10:24:15;7.45;;;4.32;;
51758;SDS011;66684;47.568;18.734;2023-06-14T10:26:53;6.50;;;4.15;;
51758;SDS011;66684;47.568;18.734;2023-06-14T10:29:22;8.70;;;3.90;;
51758;SDS011;66684;47.568;18.734;2023-06-14T10:31:49;8.65;;;3.78;;
51758;SDS011;66684;47.568;18.734;2023-06-14T10:34:26;7.85;;;3.65;;
51758;SDS011;66684;47.568;18.734;2023-06-14T10:37:06;6.37;;;4.28;;
51758;SDS011;66684;47.568;18.734;2023-06-14T10:39:39;8.43;;;4.55;;
51758;SDS011;66684;47.568;18.734;2023-06-14T10:42:07;8.40;;;4.20;;
51758;SDS011;66684;47.568;18.734;2023-06-14T10:47:06;9.32;;;4.18;;
51758;SDS011;66684;47.568;18.734;2023-06-14T10:52:07;5.62;;;3.70;;
51758;SDS011;66684;47.568;18.734;2023-06-14T10:57:29;8.50;;;3.45;;
51758;SDS011;66684;47.568;18.734;2023-06-14T10:59:59;5.25;;;3.25;;
51758;SDS011;66684;47.568;18.734;2023-06-14T11:05:29;4.72;;;2.70;;
51758;SDS011;66684;47.568;18.734;2023-06-14T11:13:06;3.60;;;2.40;;
51758;SDS011;66684;47.568;18.734;2023-06-14T11:15:34;8.43;;;3.12;;
51758;SDS011;66684;47.568;18.734;2023-06-14T11:18:04;6.12;;;2.42;;
51758;SDS011;66684;47.568;18.734;2023-06-14T11:20:37;6.75;;;2.70;;
51758;SDS011;66684;47.568;18.734;2023-06-14T11:23:03;5.20;;;2.35;;
51758;SDS011;66684;47.568;18.734;2023-06-14T11:25:30;4.05;;;2.20;;
51758;SDS011;66684;47.568;18.734;2023-06-14T11:27:56;5.43;;;2.25;;
51758;SDS011;66684;47.568;18.734;2023-06-14T11:30:23;7.50;;;2.40;;
51758;SDS011;66684;47.568;18.734;2023-06-14T11:32:51;5.90;;;2.40;;
51758;SDS011;66684;47.568;18.734;2023-06-14T11:35:19;4.40;;;2.30;;
51758;SDS011;66684;47.568;18.734;2023-06-14T11:37:48;7.10;;;2.20;;
51758;SDS011;66684;47.568;18.734;2023-06-14T11:40:17;4.80;;;1.95;;
51758;SDS011;66684;47.568;18.734;2023-06-14T11:42:43;2.60;;;1.45;;
51758;SDS011;66684;47.568;18.734;2023-06-14T11:45:10;3.33;;;1.67;;
51758;SDS011;66684;47.568;18.734;2023-06-14T11:47:39;4.12;;;1.65;;
51758;SDS011;66684;47.568;18.734;2023-06-14T11:50:06;3.92;;;2.25;;
51758;SDS011;66684;47.568;18.734;2023-06-14T11:52:34;5.85;;;1.83;;
51758;SDS011;66684;47.568;18.734;2023-06-14T11:55:02;5.32;;;1.60;;
51758;SDS011;66684;47.568;18.734;2023-06-14T11:57:35;6.43;;;1.87;;
51758;SDS011;66684;47.568;18.734;2023-06-14T12:00:05;3.65;;;1.77;;
51758;SDS011;66684;47.568;18.734;2023-06-14T12:02:38;4.45;;;1.70;;
51758;SDS011;66684;47.568;18.734;2023-06-14T12:05:06;9.05;;;2.00;;
51758;SDS011;66684;47.568;18.734;2023-06-14T12:07:36;5.07;;;1.73;;
51758;SDS011;66684;47.568;18.734;2023-06-14T12:10:03;6.20;;;2.20;;
51758;SDS011;66684;47.568;18.734;2023-06-14T12:12:37;5.95;;;2.12;;
51758;SDS011;66684;47.568;18.734;2023-06-14T12:15:04;3.85;;;1.98;;
51758;SDS011;66684;47.568;18.734;2023-06-14T12:17:35;4.80;;;1.87;;
51758;SDS011;66684;47.568;18.734;2023-06-14T12:20:08;3.05;;;1.92;;
51758;SDS011;66684;47.568;18.734;2023-06-14T12:22:56;3.95;;;2.20;;
51758;SDS011;66684;47.568;18.734;2023-06-14T12:25:33;8.00;;;2.40;;
51758;SDS011;66684;47.568;18.734;2023-06-14T12:28:04;8.02;;;2.42;;
51758;SDS011;66684;47.568;18.734;2023-06-14T12:30:32;5.93;;;1.73;;
51758;SDS011;66684;47.568;18.734;2023-06-14T12:33:00;9.35;;;1.70;;
51758;SDS011;66684;47.568;18.734;2023-06-14T12:35:27;4.45;;;1.45;;
51758;SDS011;66684;47.568;18.734;2023-06-14T12:37:53;3.90;;;1.87;;
51758;SDS011;66684;47.568;18.734;2023-06-14T12:40:19;2.87;;;1.50;;
51758;SDS011;66684;47.568;18.734;2023-06-14T12:42:45;3.53;;;1.48;;
51758;SDS011;66684;47.568;18.734;2023-06-14T12:45:14;3.12;;;1.40;;
51758;SDS011;66684;47.568;18.734;2023-06-14T12:47:40;4.65;;;1.48;;
51758;SDS011;66684;47.568;18.734;2023-06-14T12:50:06;5.00;;;1.95;;
51758;SDS011;66684;47.568;18.734;2023-06-14T12:52:33;3.97;;;1.40;;
51758;SDS011;66684;47.568;18.734;2023-06-14T12:55:04;3.45;;;1.75;;
51758;SDS011;66684;47.568;18.734;2023-06-14T12:57:31;3.67;;;1.80;;
51758;SDS011;66684;47.568;18.734;2023-06-14T12:59:57;3.97;;;1.77;;
51758;SDS011;66684;47.568;18.734;2023-06-14T13:02:23;5.03;;;1.80;;
51758;SDS011;66684;47.568;18.734;2023-06-14T13:04:50;3.95;;;1.52;;
51758;SDS011;66684;47.568;18.734;2023-06-14T13:07:16;4.78;;;1.42;;
51758;SDS011;66684;47.568;18.734;2023-06-14T13:09:42;5.20;;;1.80;;
51758;SDS011;66684;47.568;18.734;2023-06-14T13:12:10;5.28;;;1.58;;
51758;SDS011;66684;47.568;18.734;2023-06-14T13:14:37;4.82;;;1.40;;
51758;SDS011;66684;47.568;18.734;2023-06-14T13:17:06;4.68;;;1.52;;
51758;SDS011;66684;47.568;18.734;2023-06-14T13:19:33;2.80;;;1.35;;
51758;SDS011;66684;47.568;18.734;2023-06-14T13:21:59;2.75;;;1.40;;
51758;SDS011;66684;47.568;18.734;2023-06-14T13:24:25;4.43;;;1.37;;
51758;SDS011;66684;47.568;18.734;2023-06-14T13:26:51;2.72;;;1.33;;
51758;SDS011;66684;47.568;18.734;2023-06-14T13:29:17;5.65;;;1.77;;
51758;SDS011;66684;47.568;18.734;2023-06-14T13:31:43;3.58;;;1.50;;
51758;SDS011;66684;47.568;18.734;2023-06-14T13:34:08;5.57;;;1.70;;
51758;SDS011;66684;47.568;18.734;2023-06-14T13:36:34;3.37;;;1.17;;
51758;SDS011;66684;47.568;18.734;2023-06-14T13:39:00;4.37;;;1.48;;
51758;SDS011;66684;47.568;18.734;2023-06-14T13:41:27;4.22;;;1.40;;
51758;SDS011;66684;47.568;18.734;2023-06-14T13:43:59;3.80;;;1.55;;
51758;SDS011;66684;47.568;18.734;2023-06-14T13:46:25;4.05;;;1.37;;
51758;SDS011;66684;47.568;18.734;2023-06-14T13:48:52;5.37;;;1.35;;
51758;SDS011;66684;47.568;18.734;2023-06-14T13:51:18;1.87;;;1.20;;
51758;SDS011;66684;47.568;18.734;2023-06-14T13:53:48;2.30;;;1.30;;
51758;SDS011;66684;47.568;18.734;2023-06-14T13:56:14;3.78;;;1.40;;
51758;SDS011;66684;47.568;18.734;2023-06-14T13:58:41;5.43;;;1.60;;
51758;SDS011;66684;47.568;18.734;2023-06-14T14:01:07;4.50;;;1.80;;
51758;SDS011;66684;47.568;18.734;2023-06-14T14:03:34;2.25;;;1.45;;
51758;SDS011;66684;47.568;18.734;2023-06-14T14:06:02;5.05;;;2.50;;
51758;SDS011;66684;47.568;18.734;2023-06-14T14:08:29;10.02;;;3.87;;
51758;SDS011;66684;47.568;18.734;2023-06-14T14:10:55;7.62;;;3.40;;
51758;SDS011;66684;47.568;18.734;2023-06-14T14:13:21;8.60;;;4.62;;
51758;SDS011;66684;47.568;18.734;2023-06-14T14:15:48;9.52;;;4.68;;
51758;SDS011;66684;47.568;18.734;2023-06-14T14:18:18;6.97;;;2.83;;
51758;SDS011;66684;47.568;18.734;2023-06-14T14:20:46;6.40;;;3.15;;
51758;SDS011;66684;47.568;18.734;2023-06-14T14:23:12;5.93;;;3.60;;
51758;SDS011;66684;47.568;18.734;2023-06-14T14:25:38;5.95;;;3.30;;
51758;SDS011;66684;47.568;18.734;2023-06-14T14:28:04;6.47;;;3.28;;
51758;SDS011;66684;47.568;18.734;2023-06-14T14:30:30;6.87;;;3.10;;
51758;SDS011;66684;47.568;18.734;2023-06-14T14:32:56;4.45;;;1.80;;
51758;SDS011;66684;47.568;18.734;2023-06-14T14:35:21;4.28;;;1.23;;
51758;SDS011;66684;47.568;18.734;2023-06-14T14:37:49;5.62;;;1.33;;
51758;SDS011;66684;47.568;18.734;2023-06-14T14:40:15;2.72;;;1.30;;
51758;SDS011;66684;47.568;18.734;2023-06-14T14:42:41;3.40;;;1.37;;
51758;SDS011;66684;47.568;18.734;2023-06-14T14:45:07;4.53;;;1.60;;
51758;SDS011;66684;47.568;18.734;2023-06-14T14:47:33;4.78;;;2.10;;
51758;SDS011;66684;47.568;18.734;2023-06-14T14:49:59;4.30;;;1.60;;
51758;SDS011;66684;47.568;18.734;2023-06-14T14:52:25;4.07;;;1.80;;
51758;SDS011;66684;47.568;18.734;2023-06-14T14:54:52;5.07;;;1.62;;
51758;SDS011;66684;47.568;18.734;2023-06-14T14:57:19;5.93;;;1.58;;
51758;SDS011;66684;47.568;18.734;2023-06-14T14:59:45;5.35;;;1.20;;
51758;SDS011;66684;47.568;18.734;2023-06-14T15:02:11;2.75;;;1.40;;